Map

Track Data

SID SEASON NUMBER BASIN SUBBASIN NAME ISO_TIME NATURE LAT LON WMO_WIND WMO_PRES WMO_AGENCY TRACK_TYPE DIST2LAND LANDFALL IFLAG USA_AGENCY USA_ATCF_ID USA_LAT USA_LON USA_RECORD USA_STATUS USA_WIND USA_PRES USA_SSHS USA_R34_NE USA_R34_SE USA_R34_SW USA_R34_NW USA_R50_NE USA_R50_SE USA_R50_SW USA_R50_NW USA_R64_NE USA_R64_SE USA_R64_SW USA_R64_NW USA_POCI USA_ROCI USA_RMW USA_EYE TOKYO_LAT TOKYO_LON TOKYO_GRADE TOKYO_WIND TOKYO_PRES TOKYO_R50_DIR TOKYO_R50_LONG TOKYO_R50_SHORT TOKYO_R30_DIR TOKYO_R30_LONG TOKYO_R30_SHORT TOKYO_LAND CMA_LAT CMA_LON CMA_CAT CMA_WIND CMA_PRES HKO_LAT HKO_LON HKO_CAT HKO_WIND HKO_PRES NEWDELHI_LAT NEWDELHI_LON NEWDELHI_GRADE NEWDELHI_WIND NEWDELHI_PRES NEWDELHI_CI NEWDELHI_DP NEWDELHI_POCI REUNION_LAT REUNION_LON REUNION_TYPE REUNION_WIND REUNION_PRES REUNION_TNUM REUNION_CI REUNION_RMW REUNION_R34_NE REUNION_R34_SE REUNION_R34_SW REUNION_R34_NW REUNION_R50_NE REUNION_R50_SE REUNION_R50_SW REUNION_R50_NW REUNION_R64_NE REUNION_R64_SE REUNION_R64_SW REUNION_R64_NW BOM_LAT BOM_LON BOM_TYPE BOM_WIND BOM_PRES BOM_TNUM BOM_CI BOM_RMW BOM_R34_NE BOM_R34_SE BOM_R34_SW BOM_R34_NW BOM_R50_NE BOM_R50_SE BOM_R50_SW BOM_R50_NW BOM_R64_NE BOM_R64_SE BOM_R64_SW BOM_R64_NW BOM_ROCI BOM_POCI BOM_EYE BOM_POS_METHOD BOM_PRES_METHOD NADI_LAT NADI_LON NADI_CAT NADI_WIND NADI_PRES WELLINGTON_LAT WELLINGTON_LON WELLINGTON_WIND WELLINGTON_PRES DS824_LAT DS824_LON DS824_STAGE DS824_WIND DS824_PRES TD9636_LAT TD9636_LON TD9636_STAGE TD9636_WIND TD9636_PRES TD9635_LAT TD9635_LON TD9635_WIND TD9635_PRES TD9635_ROCI NEUMANN_LAT NEUMANN_LON NEUMANN_CLASS NEUMANN_WIND NEUMANN_PRES MLC_LAT MLC_LON MLC_CLASS MLC_WIND MLC_PRES USA_GUST BOM_GUST BOM_GUST_PER REUNION_GUST REUNION_GUST_PER USA_SEAHGT USA_SEARAD_NE USA_SEARAD_SE USA_SEARAD_SW USA_SEARAD_NW STORM_SPEED STORM_DIR
1985009S12182 1985 6 SP MM DRENA 1985-01-09 00:00:00 NR -11.8000 -178.000 30 997 wellington main 542 537 ________O_____ -1 -11.8000 -178.000 30 997 2 254
1985009S12182 1985 6 SP MM DRENA 1985-01-09 03:00:00 NR -11.8244 -178.091 main 537 537 ________P_____ -1 -11.8244 -178.091 30 997 1 249
1985009S12182 1985 6 SP MM DRENA 1985-01-09 06:00:00 NR -11.8490 -178.125 main 537 527 ________P_____ -1 -11.8490 -178.125 30 997 1 137
1985009S12182 1985 6 SP MM DRENA 1985-01-09 09:00:00 NR -11.8742 -178.047 main 532 532 ________P_____ -1 -11.8742 -178.047 30 997 3 99
1985009S12182 1985 6 SP MM DRENA 1985-01-09 12:00:00 NR -11.9000 -177.800 30 997 wellington main 541 530 ________O_____ -1 -11.9000 -177.800 30 997 7 94
1985009S12182 1985 6 SP MM DRENA 1985-01-09 15:00:00 NR -11.9261 -177.355 main 530 465 ________P_____ -1 -11.9261 -177.355 30 997 10 93
1985009S12182 1985 6 SP MM DRENA 1985-01-09 18:00:00 NR -11.9516 -176.788 main 465 405 ________P_____ -1 -11.9516 -176.788 30 997 11 93
1985009S12182 1985 6 SP MM DRENA 1985-01-09 21:00:00 NR -11.9761 -176.202 main 405 377 ________P_____ -1 -11.9761 -176.202 30 997 10 80
1985009S12182 1985 6 SP MM DRENA 1985-01-10 00:00:00 TS -11.7714 -175.743 30 997 wellington main 367 355 O_______O_O_O_ jtwc_sh SH091985 -11.3000 -175.900 XX 25 -5 -12.0000 -175.700 30 997 -11.8000 -175.600 2 -11.3000 -175.900 TC 25 7 71
1985009S12182 1985 6 SP MM DRENA 1985-01-10 03:00:00 TS -11.7493 -175.531 main 355 340 P_______P_P_P_ SH091985 -11.3825 -175.683 XX 25 -5 -12.0204 -175.412 31 996 -11.9407 -175.464 2 -11.3825 -175.683 TC 25 4 94
1985009S12182 1985 6 SP MM DRENA 1985-01-10 06:00:00 TS -11.7971 -175.376 main 340 325 O_______P_P_O_ jtwc_sh SH091985 -11.5000 -175.500 XX 25 -5 -12.0418 -175.222 32 996 -12.0651 -175.333 2 -11.5000 -175.500 TC 25 3 119
1985009S12182 1985 6 SP MM DRENA 1985-01-10 09:00:00 TS -11.8948 -175.265 main 325 309 P_______P_P_P_ SH091985 -11.6775 -175.378 XX 27 -5 -12.0674 -175.097 33 995 -12.1569 -175.210 2 -11.6775 -175.378 TC 27 3 139
1985009S12182 1985 6 SP MM DRENA 1985-01-10 12:00:00 TS -12.0250 -175.175 35 995 wellington main 309 294 O_______O_O_O_ jtwc_sh SH091985 -11.9000 -175.300 XX 30 -5 -12.1000 -175.000 35 995 -12.2000 -175.100 2 -11.9000 -175.300 TC 30 3 144
1985009S12182 1985 6 SP MM DRENA 1985-01-10 15:00:00 TS -12.1290 -175.096 main 294 273 P_______P_P_P_ SH091985 -12.1275 -175.250 XX 30 -5 -12.0696 -174.878 36 993 -12.1912 -175.005 2 -12.1275 -175.250 TC 30 3 148
1985009S12182 1985 6 SP MM DRENA 1985-01-10 18:00:00 TS -12.2593 -175.023 main 273 258 O_______P_P_O_ jtwc_sh SH091985 -12.4000 -175.200 XX 30 -5 -12.0575 -174.777 37 992 -12.1799 -174.914 2 -12.4000 -175.200 TC 30 4 153
1985009S12182 1985 6 SP MM DRENA 1985-01-10 21:00:00 TS -12.4538 -174.926 main 253 234 P_______P_P_P_ SH091985 -12.7350 -175.100 XX 32 -5 -12.1165 -174.688 38 991 -12.2287 -174.817 2 -12.7350 -175.100 TC 32 5 157
1985009S12182 1985 6 SP MM DRENA 1985-01-11 00:00:00 TS -12.7250 -174.825 40 990 wellington main 234 210 O_______O_O_O_ jtwc_sh SH091985 -13.1000 -175.000 XX 35 -5 -12.3000 -174.600 40 990 -12.4000 -174.700 2 -13.1000 -175.000 TC 35 7 163
1985009S12182 1985 6 SP MM DRENA 1985-01-11 03:00:00 TS -13.0867 -174.727 main 210 194 P_______P_P_P_ SH091985 -13.4425 -174.950 XX 35 -5 -12.6747 -174.488 41 989 -12.7870 -174.519 2 -13.4425 -174.950 TC 35 8 166
1985009S12182 1985 6 SP MM DRENA 1985-01-11 06:00:00 TS -13.5170 -174.625 main 194 186 O_______P_P_O_ jtwc_sh SH091985 -13.8000 -174.900 XX 35 -5 -13.1726 -174.378 42 988 -13.2952 -174.321 2 -13.8000 -174.900 TC 35 9 167
1985009S12182 1985 6 SP MM DRENA 1985-01-11 09:00:00 TS -13.9975 -174.508 main 192 192 P_______P_P_P_ SH091985 -14.2000 -174.808 XX 37 -5 -13.7342 -174.279 43 987 -13.8558 -174.138 2 -14.2000 -174.808 TC 37 10 167
1985009S12182 1985 6 SP MM DRENA 1985-01-11 12:00:00 TS -14.4750 -174.400 45 987 wellington main 205 205 O_______O_O_O_ jtwc_sh SH091985 -14.6000 -174.700 XX 40 -5 -14.3000 -174.200 45 987 -14.4000 -174.000 2 -14.6000 -174.700 TC 40 9 169
1985009S12182 1985 6 SP MM DRENA 1985-01-11 15:00:00 TS -14.8899 -174.335 main 220 220 P_______P_P_P_ SH091985 -14.9500 -174.607 XX 40 -5 -14.8146 -174.165 45 987 -14.8449 -173.961 2 -14.9500 -174.607 TC 40 8 172
1985009S12182 1985 6 SP MM DRENA 1985-01-11 18:00:00 TS -15.2943 -174.280 main 248 248 O_______P_P_O_ jtwc_sh SH091985 -15.3000 -174.500 XX 40 -5 -15.3174 -174.149 45 987 -15.2598 -173.969 2 -15.3000 -174.500 TC 40 8 172
1985009S12182 1985 6 SP MM DRENA 1985-01-11 21:00:00 TS -15.7116 -174.207 main 273 273 P_______P_P_P_ SH091985 -15.7075 -174.350 XX 42 -5 -15.7865 -174.134 45 987 -15.6449 -173.993 2 -15.7075 -174.350 TC 42 8 169
1985009S12182 1985 6 SP MM DRENA 1985-01-12 00:00:00 TS -16.1000 -174.125 45 987 wellington main 303 303 O_______O_O_O_ jtwc_sh SH091985 -16.1000 -174.200 XX 45 -5 -16.2000 -174.100 45 987 -16.0000 -174.000 2 50 -16.1000 -174.200 TC 45 7 168
1985009S12182 1985 6 SP MM DRENA 1985-01-12 03:00:00 TS -16.4384 -174.049 main 327 327 P_______P_P_P_ SH091985 -16.4300 -174.100 XX 47 -5 -16.5487 -174.034 43 987 -16.3449 -173.963 2 -16.4300 -174.100 TC 47 6 166
1985009S12182 1985 6 SP MM DRENA 1985-01-12 06:00:00 TS -16.7249 -173.962 main 357 357 O_______P_P_O_ jtwc_sh SH091985 -16.7000 -174.000 XX 50 -5 -16.8399 -173.945 42 988 -16.6599 -173.902 2 -16.7000 -174.000 TC 50 6 160
1985009S12182 1985 6 SP MM DRENA 1985-01-12 09:00:00 TS -16.9653 -173.841 main 380 380 P_______P_P_P_ SH091985 -16.9150 -173.857 XX 50 -5 -17.0862 -173.834 41 989 -16.9449 -173.816 2 -16.9150 -173.857 TC 50 5 151
1985009S12182 1985 6 SP MM DRENA 1985-01-12 12:00:00 TS -17.1750 -173.700 40 990 wellington main 398 398 O_______O_O_O_ jtwc_sh SH091985 -17.1000 -173.700 XX 50 -5 -17.3000 -173.700 40 990 -17.2000 -173.700 2 -17.1000 -173.700 TC 50 5 147
1985009S12182 1985 6 SP MM DRENA 1985-01-12 15:00:00 TS -17.3814 -173.554 main 416 414 P_______P_P_P_ SH091985 -17.2925 -173.550 XX 50 -5 -17.5037 -173.559 38 991 -17.4369 -173.558 2 -17.2925 -173.550 TC 50 5 145
1985009S12182 1985 6 SP MM DRENA 1985-01-12 18:00:00 TS -17.5812 -173.396 main 433 431 O_______P_P_O_ jtwc_sh SH091985 -17.5000 -173.400 XX 50 -5 -17.6799 -173.395 37 992 -17.6450 -173.387 2 -17.5000 -173.400 TC 50 5 143
1985009S12182 1985 6 SP MM DRENA 1985-01-12 21:00:00 TS -17.7929 -173.227 main 452 452 P_______P_P_P_ SH091985 -17.7500 -173.250 XX 47 -5 -17.8411 -173.209 36 993 -17.8306 -173.198 2 -17.7500 -173.250 TC 47 5 142
1985009S12182 1985 6 SP MM DRENA 1985-01-13 00:00:00 TS -18.0000 -173.050 35 995 wellington main 472 472 O_______O_O_O_ jtwc_sh SH091985 -18.0000 -173.100 XX 45 -5 -18.0000 -173.000 35 995 -18.0000 -173.000 2 -18.0000 -173.100 TC 45 5 140
1985009S12182 1985 6 SP MM DRENA 1985-01-13 03:00:00 TS -18.1899 -172.874 main 493 492 P_______P_P_P_ SH091985 -18.2000 -172.950 XX 45 -5 -18.1912 -172.776 33 995 -18.1683 -172.819 2 -18.2000 -172.950 TC 45 5 138
1985009S12182 1985 6 SP MM DRENA 1985-01-13 06:00:00 TS -18.3756 -172.690 main 514 514 O_______P_P_O_ jtwc_sh SH091985 -18.4000 -172.800 XX 45 -5 -18.3800 -172.530 32 996 -18.3223 -172.630 2 -18.4000 -172.800 TC 45 5 138
1985009S12182 1985 6 SP MM DRENA 1985-01-13 09:00:00 TS -18.5722 -172.506 main 537 537 P_______P_P_P_ SH091985 -18.6349 -172.665 XX 42 -5 -18.5537 -172.270 31 996 -18.4651 -172.425 2 -18.6349 -172.665 TC 42 5 137
1985009S12182 1985 6 SP MM DRENA 1985-01-13 12:00:00 TS -18.7750 -172.300 30 997 wellington main 559 559 O_______O_O_O_ jtwc_sh SH091985 -18.9000 -172.500 XX 40 -5 -18.7000 -172.000 30 997 -18.6000 -172.200 2 -18.9000 -172.500 TC 40 6 134
1985009S12182 1985 6 SP MM DRENA 1985-01-13 15:00:00 TS -18.9788 -172.067 main 582 582 P_______P_P_P_ SH091985 -19.1849 -172.287 XX 37 -5 -18.8157 -171.744 30 997 -18.7296 -171.949 2 -19.1849 -172.287 TC 37 6 128
1985009S12182 1985 6 SP MM DRENA 1985-01-13 18:00:00 TS -19.1673 -171.766 main 605 605 O_______P_P_O_ jtwc_sh SH091985 -19.5000 -172.000 XX 35 -5 -18.9022 -171.480 30 997 -18.8555 -171.678 2 -19.5000 -172.000 TC 35 7 119
1985009S12182 1985 6 SP MM DRENA 1985-01-13 21:00:00 TS -19.3178 -171.409 main 621 621 P_______P_P_P_ SH091985 -19.8428 -171.625 XX 32 -5 -18.9626 -171.201 30 997 -18.9785 -171.393 2 -19.8428 -171.625 TC 32 7 105
1985009S12182 1985 6 SP MM DRENA 1985-01-14 00:00:00 TS -19.3571 -171.014 30 997 wellington main 639 606 O_______O_O_O_ jtwc_sh SH091985 -20.2000 -171.200 XX 30 -5 -19.0000 -170.900 30 997 -19.1000 -171.100 2 -20.2000 -171.200 TC 30 8 69
1985009S12182 1985 6 SP MM DRENA 1985-01-14 03:00:00 NR -19.0174 -170.575 main 606 606 ________P_____ SH091985 XX -5 -19.0174 -170.575 30 997 2 TC 8 65
1985009S12182 1985 6 SP MM DRENA 1985-01-14 06:00:00 NR -19.0149 -170.230 main 619 619 ________P_____ XX -5 -19.0149 -170.230 30 997 2 7 89
1985009S12182 1985 6 SP MM DRENA 1985-01-14 09:00:00 NR -19.0049 -169.869 main 631 631 ________P_____ XX -5 -19.0049 -169.869 30 997 2 7 89
1985009S12182 1985 6 SP MM DRENA 1985-01-14 12:00:00 NR -19.0000 -169.500 30 997 wellington main 649 649 ________O_____ -1 -19.0000 -169.500 30 997 7 91
1985009S12182 1985 6 SP MM DRENA 1985-01-14 15:00:00 NR -19.0175 -169.140 main 669 669 ________P_____ -1 -19.0175 -169.140 30 997 7 94
1985009S12182 1985 6 SP MM DRENA 1985-01-14 18:00:00 NR -19.0421 -168.773 main 685 685 ________P_____ -1 -19.0421 -168.773 30 997 7 94
1985009S12182 1985 6 SP MM DRENA 1985-01-14 21:00:00 NR -19.0706 -168.393 main 718 718 ________P_____ -1 -19.0706 -168.393 30 997 7 95
1985009S12182 1985 6 SP MM DRENA 1985-01-15 00:00:00 NR -19.1000 -168.000 30 997 wellington main 743 743 ________O_____ -1 -19.1000 -168.000 30 997 7 92
1985009S12182 1985 6 SP MM DRENA 1985-01-15 03:00:00 NR -19.0951 -167.653 main 762 762 ________P_____ -1 -19.0951 -167.653 30 997 7 90
1985009S12182 1985 6 SP MM DRENA 1985-01-15 06:00:00 NR -19.0951 -167.283 main 790 790 ________P_____ -1 -19.0951 -167.283 30 997 8 92
1985009S12182 1985 6 SP MM DRENA 1985-01-15 09:00:00 NR -19.1227 -166.847 main 826 826 ________P_____ -1 -19.1227 -166.847 30 997 9 96
1985009S12182 1985 6 SP MM DRENA 1985-01-15 12:00:00 NR -19.2000 -166.300 30 997 wellington main 872 872 ________O_____ -1 -19.2000 -166.300 30 997 12 101
1985009S12182 1985 6 SP MM DRENA 1985-01-15 15:00:00 NR -19.3418 -165.613 main 934 934 ________P_____ -1 -19.3418 -165.613 30 997 14 103
1985009S12182 1985 6 SP MM DRENA 1985-01-15 18:00:00 NR -19.5353 -164.809 main 1013 1013 ________P_____ -1 -19.5353 -164.809 30 997 16 105
1985009S12182 1985 6 SP MM DRENA 1985-01-15 21:00:00 NR -19.7610 -163.925 main 1109 1109 ________P_____ -1 -19.7610 -163.925 30 997 18 105
1985009S12182 1985 6 SP MM DRENA 1985-01-16 00:00:00 NR -20.0000 -163.000 30 997 wellington main 1199 ________O_____ -1 -20.0000 -163.000 30 997 18 105

Digital Typhoon Data and Search

About IBTrACS Database

This database is a web-friendly format of International Best Track Archive for Climate Stewardship (IBTrACS), a global best track data archive curated by NOAA dating back to 1842.

Updated: 2021-10-08